Time;durP1;ratioP1;P1;durP2;ratioP2;P2;SDS_P1;SDS_P2;PMS_P1;PMS_P2;Temp;Humidity;BMP_temperature;BMP_pressure;BME280_temperature;BME280_humidity;BME280_pressure;Samples;Min_cycle;Max_cycle;Signal;HPM_P1;HPM_P2
2022/09/20 00:02:10;;;;;;;11.95;5.97;;;;;;;;;;4992176;28;20061;-67
2022/09/20 00:04:40;;;;;;;16.05;6.82;;;;;;;;;;5013015;28;20050;-67
2022/09/20 00:07:10;;;;;;;18.23;7.05;;;;;;;;;;5039179;28;20173;-67
2022/09/20 00:09:40;;;;;;;17.67;7.18;;;;;;;;;;5032769;28;20382;-67
2022/09/20 00:12:11;;;;;;;13.82;7.22;;;;;;;;;;5048913;28;20037;-67
2022/09/20 00:14:41;;;;;;;15.90;6.85;;;;;;;;;;4980064;28;20049;-67
2022/09/20 00:17:11;;;;;;;16.00;7.45;;;;;;;;;;4989606;28;20047;-67
2022/09/20 00:19:41;;;;;;;13.50;6.28;;;;;;;;;;4999034;28;20419;-67
2022/09/20 00:22:12;;;;;;;14.13;6.72;;;;;;;;;;5002568;28;20049;-67
2022/09/20 00:24:42;;;;;;;14.40;6.60;;;;;;;;;;4979850;28;20121;-68
2022/09/20 00:27:16;;;;;;;16.65;7.20;;;;;;;;;;5029108;28;20065;-67
2022/09/20 00:29:47;;;;;;;15.13;6.70;;;;;;;;;;4964494;28;20061;-68
2022/09/20 00:32:17;;;;;;;16.60;6.80;;;;;;;;;;4979991;28;20121;-67
2022/09/20 00:37:40;;;;;;;15.13;6.80;;;;;;;;;;5029085;28;20050;-68
2022/09/20 00:40:16;;;;;;;14.50;6.90;;;;;;;;;;5028903;28;20061;-69
2022/09/20 00:42:47;;;;;;;16.25;7.43;;;;;;;;;;5028672;28;20185;-69
2022/09/20 00:45:30;;;;;;;22.10;8.10;;;;;;;;;;5008819;28;20049;-69
2022/09/20 00:48:06;;;;;;;13.48;6.47;;;;;;;;;;5009019;28;20065;-69
2022/09/20 00:50:50;;;;;;;19.08;7.38;;;;;;;;;;5009184;28;20445;-69
2022/09/20 00:53:25;;;;;;;14.90;7.00;;;;;;;;;;5027264;28;20053;-68
2022/09/20 00:56:02;;;;;;;19.42;7.93;;;;;;;;;;5066545;28;20389;-68
2022/09/20 00:58:38;;;;;;;14.52;6.80;;;;;;;;;;5035535;28;20523;-68
2022/09/20 01:01:10;;;;;;;17.40;7.25;;;;;;;;;;5048354;28;20049;-68
2022/09/20 01:03:42;;;;;;;16.77;7.32;;;;;;;;;;5048579;28;20053;-68
2022/09/20 01:06:16;;;;;;;16.77;7.30;;;;;;;;;;5048566;28;20079;-68
2022/09/20 01:08:49;;;;;;;14.40;6.78;;;;;;;;;;5048369;28;20080;-68
2022/09/20 01:11:21;;;;;;;13.25;6.75;;;;;;;;;;5015582;28;20047;-68
2022/09/20 01:13:51;;;;;;;15.13;7.07;;;;;;;;;;5048869;28;20061;-67
2022/09/20 01:16:23;;;;;;;19.58;8.07;;;;;;;;;;5048429;28;20056;-68
2022/09/20 01:18:58;;;;;;;26.60;11.43;;;;;;;;;;5048564;28;20064;-67
2022/09/20 01:21:29;;;;;;;25.98;10.30;;;;;;;;;;5014540;28;20057;-68
2022/09/20 01:24:21;;;;;;;22.10;9.65;;;;;;;;;;5017705;28;20692;-67
2022/09/20 01:27:18;;;;;;;16.02;6.93;;;;;;;;;;5068494;28;20057;-67
2022/09/20 01:30:32;;;;;;;18.73;7.47;;;;;;;;;;5068386;28;20041;-68
2022/09/20 01:33:02;;;;;;;15.65;7.45;;;;;;;;;;4940665;28;20061;-68
2022/09/20 01:35:34;;;;;;;15.98;7.05;;;;;;;;;;4989013;28;20049;-68
2022/09/20 01:38:34;;;;;;;17.15;6.88;;;;;;;;;;4980754;28;20053;-68
2022/09/20 01:41:29;;;;;;;16.33;7.57;;;;;;;;;;4995650;28;20049;-68
2022/09/20 01:44:41;;;;;;;19.95;7.90;;;;;;;;;;5025705;28;20061;-67
2022/09/20 01:47:22;;;;;;;17.75;7.35;;;;;;;;;;4995723;28;20061;-67
2022/09/20 01:50:11;;;;;;;16.00;7.72;;;;;;;;;;5028552;28;20062;-67
2022/09/20 01:52:56;;;;;;;14.65;7.30;;;;;;;;;;5028302;28;20045;-67
2022/09/20 01:55:40;;;;;;;15.73;7.13;;;;;;;;;;5028298;28;20493;-68
2022/09/20 01:58:36;;;;;;;16.13;7.38;;;;;;;;;;5028167;28;20064;-67
2022/09/20 02:01:40;;;;;;;15.07;6.82;;;;;;;;;;5028352;28;20060;-68
2022/09/20 02:04:41;;;;;;;15.57;7.20;;;;;;;;;;5028839;28;20057;-67
2022/09/20 02:07:48;;;;;;;14.63;6.97;;;;;;;;;;5031799;28;20046;-68
2022/09/20 02:10:45;;;;;;;15.88;6.90;;;;;;;;;;5068808;28;20071;-68
2022/09/20 02:13:44;;;;;;;14.82;7.25;;;;;;;;;;5050936;28;20048;-67
2022/09/20 02:16:23;;;;;;;15.32;6.60;;;;;;;;;;5034606;28;20545;-67
2022/09/20 02:19:29;;;;;;;19.08;6.47;;;;;;;;;;5051059;28;20052;-68
2022/09/20 02:22:26;;;;;;;12.95;6.22;;;;;;;;;;5051147;28;20049;-67
2022/09/20 02:25:14;;;;;;;17.25;7.00;;;;;;;;;;5031556;28;20060;-67
2022/09/20 02:27:55;;;;;;;12.20;6.20;;;;;;;;;;5015164;28;20061;-68
2022/09/20 02:30:44;;;;;;;15.90;6.38;;;;;;;;;;4982323;28;20493;-67
2022/09/20 02:33:23;;;;;;;14.18;6.05;;;;;;;;;;5031238;28;20049;-67
2022/09/20 02:36:21;;;;;;;15.68;5.93;;;;;;;;;;4991384;28;20065;-68
2022/09/20 02:39:12;;;;;;;13.45;5.93;;;;;;;;;;4991777;28;20061;-67
2022/09/20 02:41:58;;;;;;;13.25;6.07;;;;;;;;;;4991776;28;20431;-67
2022/09/20 02:44:52;;;;;;;12.73;6.22;;;;;;;;;;4991631;28;20506;-67
2022/09/20 02:47:38;;;;;;;11.43;5.82;;;;;;;;;;4991506;28;20074;-67
2022/09/20 02:50:45;;;;;;;15.35;6.18;;;;;;;;;;4959472;28;20062;-67
2022/09/20 02:53:59;;;;;;;13.65;6.80;;;;;;;;;;4991286;28;20164;-68
2022/09/20 02:56:44;;;;;;;14.73;6.80;;;;;;;;;;4972042;28;20059;-68
2022/09/20 02:59:36;;;;;;;14.25;6.55;;;;;;;;;;4956064;28;20059;-68
2022/09/20 03:02:56;;;;;;;14.52;6.85;;;;;;;;;;4984087;28;20480;-68
2022/09/20 03:05:43;;;;;;;13.40;6.97;;;;;;;;;;4971775;28;20166;-68
2022/09/20 03:08:31;;;;;;;17.55;6.70;;;;;;;;;;4971831;28;20411;-68
2022/09/20 03:11:47;;;;;;;15.93;7.40;;;;;;;;;;4971676;28;20511;-68
2022/09/20 03:14:36;;;;;;;15.63;6.30;;;;;;;;;;5018808;28;20061;-67
2022/09/20 03:17:26;;;;;;;15.38;6.85;;;;;;;;;;5030759;28;20045;-67
2022/09/20 03:20:11;;;;;;;14.90;6.63;;;;;;;;;;5030347;28;20545;-68
2022/09/20 03:22:58;;;;;;;15.75;6.65;;;;;;;;;;4997091;28;20057;-67
2022/09/20 03:25:41;;;;;;;20.50;7.43;;;;;;;;;;5010205;28;20046;-69
2022/09/20 03:28:20;;;;;;;16.30;7.13;;;;;;;;;;5010443;28;20064;-69
2022/09/20 03:31:04;;;;;;;17.63;7.60;;;;;;;;;;5010499;28;20070;-69
2022/09/20 03:33:57;;;;;;;19.38;8.15;;;;;;;;;;5021263;28;20057;-69
2022/09/20 03:36:45;;;;;;;19.98;8.02;;;;;;;;;;4951937;28;20071;-69
2022/09/20 03:39:52;;;;;;;16.67;7.55;;;;;;;;;;4935869;29;20055;-69
2022/09/20 03:42:29;;;;;;;14.40;6.50;;;;;;;;;;4971328;28;20051;-69
2022/09/20 03:45:14;;;;;;;15.77;6.40;;;;;;;;;;4955362;28;20054;-69
2022/09/20 03:48:11;;;;;;;16.75;6.55;;;;;;;;;;4951467;29;20484;-68
2022/09/20 03:51:09;;;;;;;15.88;7.25;;;;;;;;;;4951872;29;20070;-68
2022/09/20 03:54:16;;;;;;;14.10;6.63;;;;;;;;;;4913334;29;20067;-68
2022/09/20 03:57:14;;;;;;;18.35;7.47;;;;;;;;;;4882261;29;20059;-67
2022/09/20 04:00:16;;;;;;;17.75;7.68;;;;;;;;;;4913451;29;20408;-68
2022/09/20 04:03:06;;;;;;;15.38;6.65;;;;;;;;;;4876450;29;20409;-67
2022/09/20 04:05:54;;;;;;;15.38;7.13;;;;;;;;;;4894425;29;20072;-67
2022/09/20 04:08:58;;;;;;;16.40;6.95;;;;;;;;;;4894338;29;20063;-66
2022/09/20 04:11:52;;;;;;;18.45;6.93;;;;;;;;;;4894145;29;20052;-67
2022/09/20 04:14:35;;;;;;;14.45;6.20;;;;;;;;;;4925064;29;20803;-67
2022/09/20 04:17:34;;;;;;;14.10;5.95;;;;;;;;;;4912550;29;20048;-67
2022/09/20 04:20:33;;;;;;;14.32;6.68;;;;;;;;;;4894084;29;21066;-67
2022/09/20 04:23:44;;;;;;;16.77;6.32;;;;;;;;;;4860088;29;20057;-67
2022/09/20 04:26:25;;;;;;;15.05;7.05;;;;;;;;;;4859488;29;20064;-67
2022/09/20 04:29:08;;;;;;;15.88;7.15;;;;;;;;;;4841213;29;20578;-67
2022/09/20 04:32:02;;;;;;;16.92;6.85;;;;;;;;;;4873932;29;20080;-67
2022/09/20 04:37:37;;;;;;;15.55;6.68;;;;;;;;;;4856591;29;20077;-67
2022/09/20 04:40:27;;;;;;;16.05;6.90;;;;;;;;;;4883112;29;20414;-67
2022/09/20 04:43:22;;;;;;;;;;;;;;;;;;4923378;29;20048;-67
2022/09/20 04:46:18;;;;;;;17.83;7.00;;;;;;;;;;4931824;29;19930;-67
2022/09/20 04:49:03;;;;;;;16.65;7.07;;;;;;;;;;4878489;29;20488;-67
2022/09/20 04:51:50;;;;;;;17.45;7.75;;;;;;;;;;4893464;29;20049;-67
2022/09/20 04:54:49;;;;;;;17.00;7.03;;;;;;;;;;4856524;29;20139;-67
2022/09/20 04:57:39;;;;;;;16.77;7.20;;;;;;;;;;4890064;29;20071;-67
2022/09/20 05:00:22;;;;;;;17.83;7.38;;;;;;;;;;4907459;29;20059;-67
2022/09/20 05:03:11;;;;;;;17.55;7.32;;;;;;;;;;4969724;28;20042;-67
2022/09/20 05:05:49;;;;;;;16.88;7.38;;;;;;;;;;4937806;28;20055;-67
2022/09/20 05:08:39;;;;;;;;;;;;;;;;;;4896733;29;20048;-67
2022/09/20 05:11:46;;;;;;;16.02;6.80;;;;;;;;;;4931247;29;20307;-67
2022/09/20 05:14:41;;;;;;;18.58;6.93;;;;;;;;;;4901874;29;20063;-67
2022/09/20 05:17:15;;;;;;;14.23;6.90;;;;;;;;;;4893031;29;20111;-67
2022/09/20 05:20:01;;;;;;;15.45;7.05;;;;;;;;;;4907435;29;20556;-67
2022/09/20 05:23:07;;;;;;;13.45;6.30;;;;;;;;;;4874753;29;20057;-67
2022/09/20 05:25:55;;;;;;;16.38;7.32;;;;;;;;;;4876966;29;20053;-67
2022/09/20 05:28:39;;;;;;;16.05;6.47;;;;;;;;;;4893287;29;20059;-67
2022/09/20 05:31:29;;;;;;;12.45;6.32;;;;;;;;;;4847030;29;20057;-67
2022/09/20 05:34:12;;;;;;;15.05;7.03;;;;;;;;;;4893211;29;20064;-67
2022/09/20 05:37:15;;;;;;;14.18;6.40;;;;;;;;;;4893289;29;20052;-67
2022/09/20 05:40:06;;;;;;;14.68;6.45;;;;;;;;;;4891772;29;20064;-67
2022/09/20 05:42:59;;;;;;;14.80;6.60;;;;;;;;;;4878189;29;20057;-67
2022/09/20 05:45:56;;;;;;;14.60;6.85;;;;;;;;;;4896743;29;20079;-67
2022/09/20 05:48:58;;;;;;;14.68;7.03;;;;;;;;;;4878510;29;20578;-67
2022/09/20 05:52:03;;;;;;;15.48;7.07;;;;;;;;;;4874684;29;20060;-68
2022/09/20 05:55:00;;;;;;;17.52;7.45;;;;;;;;;;4847128;29;20061;-68
2022/09/20 05:57:48;;;;;;;17.35;7.20;;;;;;;;;;4837215;29;20058;-68
2022/09/20 06:00:20;;;;;;;21.95;8.32;;;;;;;;;;4859777;29;20261;-68
2022/09/20 06:03:08;;;;;;;;;;;;;;;;;;4912407;28;20074;-68
2022/09/20 06:06:03;;;;;;;17.70;6.97;;;;;;;;;;4973096;28;19928;-68
2022/09/20 06:08:49;;;;;;;17.42;6.32;;;;;;;;;;4925457;28;20059;-68
2022/09/20 06:11:31;;;;;;;19.27;6.80;;;;;;;;;;4973058;28;20063;-68
2022/09/20 06:15:00;;;;;;;16.48;7.13;;;;;;;;;;4972751;28;20054;-68
2022/09/20 06:17:43;;;;;;;16.17;7.07;;;;;;;;;;4915161;29;20056;-68
2022/09/20 06:20:20;;;;;;;16.48;7.15;;;;;;;;;;4899520;29;20063;-68
2022/09/20 06:22:57;;;;;;;17.08;7.57;;;;;;;;;;4922763;29;20090;-68
2022/09/20 06:25:54;;;;;;;18.00;7.32;;;;;;;;;;4880494;29;20060;-68
2022/09/20 06:28:29;;;;;;;15.68;6.93;;;;;;;;;;4921355;29;20062;-68
2022/09/20 06:31:04;;;;;;;17.85;7.63;;;;;;;;;;4902777;29;20056;-68
2022/09/20 06:34:00;;;;;;;18.58;7.10;;;;;;;;;;4934152;29;20071;-68
2022/09/20 06:42:28;;;;;;;15.00;5.75;;;;;;;;;;4883562;29;20067;-67
2022/09/20 06:44:58;;;;;;;14.98;6.20;;;;;;;;;;4915025;29;20048;-68
2022/09/20 06:47:28;;;;;;;12.48;5.60;;;;;;;;;;4914801;29;20060;-67
2022/09/20 06:49:58;;;;;;;16.77;6.28;;;;;;;;;;4914241;29;20108;-67
2022/09/20 06:52:29;;;;;;;16.73;6.32;;;;;;;;;;4928818;29;20054;-67
2022/09/20 06:54:59;;;;;;;20.73;6.28;;;;;;;;;;4964371;28;20077;-67
2022/09/20 06:57:37;;;;;;;15.98;6.82;;;;;;;;;;4991672;28;20543;-67
2022/09/20 07:00:10;;;;;;;20.10;6.53;;;;;;;;;;4955602;28;20051;-67
2022/09/20 07:02:40;;;;;;;45.17;6.90;;;;;;;;;;4946255;29;20063;-67
2022/09/20 07:05:16;;;;;;;15.00;6.25;;;;;;;;;;4918171;29;20100;-67
2022/09/20 07:07:46;;;;;;;14.30;5.93;;;;;;;;;;4933257;29;20435;-67
2022/09/20 07:10:16;;;;;;;16.10;5.82;;;;;;;;;;4933311;29;20052;-67
2022/09/20 07:12:47;;;;;;;13.90;6.55;;;;;;;;;;4936941;28;20056;-67
2022/09/20 07:15:21;;;;;;;16.70;6.82;;;;;;;;;;4955663;28;20055;-67
2022/09/20 07:17:51;;;;;;;15.48;5.80;;;;;;;;;;4952169;29;20404;-67
2022/09/20 07:20:22;;;;;;;19.55;5.65;;;;;;;;;;4952500;29;20062;-67
2022/09/20 07:22:52;;;;;;;21.33;6.15;;;;;;;;;;4952317;29;20420;-67
2022/09/20 07:25:22;;;;;;;16.85;6.10;;;;;;;;;;4952178;29;20063;-67
2022/09/20 07:27:52;;;;;;;18.92;6.28;;;;;;;;;;4971273;28;20047;-67
2022/09/20 07:30:22;;;;;;;25.05;6.70;;;;;;;;;;4971357;28;20385;-67
2022/09/20 07:32:52;;;;;;;22.60;5.97;;;;;;;;;;4971089;28;20062;-68
2022/09/20 07:35:22;;;;;;;24.35;6.63;;;;;;;;;;4971182;28;20063;-68
2022/09/20 07:37:56;;;;;;;21.23;7.22;;;;;;;;;;4973055;28;20047;-67
2022/09/20 07:40:27;;;;;;;23.63;7.93;;;;;;;;;;4992968;28;20060;-67
2022/09/20 07:42:57;;;;;;;31.35;9.60;;;;;;;;;;4977492;28;20058;-68
2022/09/20 07:45:26;;;;;;;37.67;10.32;;;;;;;;;;5009908;28;20058;-67
2022/09/20 07:47:58;;;;;;;33.70;10.50;;;;;;;;;;5010050;28;20041;-67
2022/09/20 07:50:28;;;;;;;27.02;10.05;;;;;;;;;;4961246;28;20079;-67
2022/09/20 07:52:58;;;;;;;27.45;10.02;;;;;;;;;;4961381;28;20409;-67
2022/09/20 07:55:28;;;;;;;25.88;9.27;;;;;;;;;;4961242;28;20054;-67
2022/09/20 07:57:58;;;;;;;21.63;8.45;;;;;;;;;;4961347;28;20065;-67
2022/09/20 08:00:28;;;;;;;19.52;6.78;;;;;;;;;;5009862;28;20045;-67
2022/09/20 08:02:59;;;;;;;17.25;6.55;;;;;;;;;;4976963;28;20054;-67
2022/09/20 08:05:30;;;;;;;15.23;5.82;;;;;;;;;;4977037;28;20050;-67
2022/09/20 08:08:00;;;;;;;23.80;5.53;;;;;;;;;;5009869;28;20061;-67
2022/09/20 08:10:32;;;;;;;16.52;5.43;;;;;;;;;;5019404;28;20053;-67
2022/09/20 08:13:02;;;;;;;17.15;5.78;;;;;;;;;;5029568;28;20049;-67
2022/09/20 08:16:00;;;;;;;20.20;6.28;;;;;;;;;;5054926;28;20520;-67
2022/09/20 08:18:30;;;;;;;14.73;6.43;;;;;;;;;;5059666;28;20052;-67
2022/09/20 08:21:07;;;;;;;16.60;6.30;;;;;;;;;;5089301;28;20078;-67
2022/09/20 08:23:39;;;;;;;21.35;6.88;;;;;;;;;;5089325;28;20558;-67
2022/09/20 08:26:19;;;;;;;19.50;6.68;;;;;;;;;;5089361;28;20519;-67
2022/09/20 08:28:52;;;;;;;16.88;6.68;;;;;;;;;;5055419;28;20056;-67
2022/09/20 08:31:24;;;;;;;21.95;6.40;;;;;;;;;;5089352;28;20060;-67
2022/09/20 08:33:55;;;;;;;;;;;;;;;;;;5089791;28;20082;-68
2022/09/20 08:36:25;;;;;;;18.63;6.22;;;;;;;;;;5048786;28;19921;-67
2022/09/20 08:39:06;;;;;;;22.52;5.85;;;;;;;;;;5030839;28;20060;-67
2022/09/20 08:42:14;;;;;;;20.13;6.40;;;;;;;;;;5048782;28;20535;-67
2022/09/20 08:44:56;;;;;;;24.13;5.82;;;;;;;;;;5049039;28;20087;-67
2022/09/20 08:47:41;;;;;;;15.57;6.15;;;;;;;;;;5048464;28;20052;-67
2022/09/20 08:50:15;;;;;;;20.50;6.28;;;;;;;;;;5008919;28;20065;-67
2022/09/20 08:52:49;;;;;;;18.05;4.93;;;;;;;;;;4960668;28;20058;-67
2022/09/20 08:55:30;;;;;;;20.85;5.82;;;;;;;;;;5008963;28;20065;-68
2022/09/20 08:58:13;;;;;;;19.80;5.40;;;;;;;;;;4969818;28;20518;-67
2022/09/20 09:00:45;;;;;;;16.33;5.18;;;;;;;;;;4954195;28;20055;-67
2022/09/20 09:03:17;;;;;;;18.63;5.10;;;;;;;;;;4970210;28;20059;-67
2022/09/20 09:05:51;;;;;;;14.30;5.25;;;;;;;;;;4969976;28;20063;-67
2022/09/20 09:08:32;;;;;;;11.70;4.43;;;;;;;;;;4969996;28;20063;-67
2022/09/20 09:11:23;;;;;;;13.25;4.15;;;;;;;;;;4989057;28;20077;-68
2022/09/20 09:14:00;;;;;;;10.63;4.40;;;;;;;;;;4913227;29;20064;-68
2022/09/20 09:16:34;;;;;;;10.30;4.20;;;;;;;;;;4934663;28;20500;-68
2022/09/20 09:19:27;;;;;;;11.88;4.68;;;;;;;;;;4929708;29;20060;-68
2022/09/20 09:22:05;;;;;;;10.52;4.25;;;;;;;;;;4946977;28;20444;-68
2022/09/20 09:24:35;;;;;;;18.42;4.32;;;;;;;;;;4954706;28;20055;-68
2022/09/20 09:27:13;;;;;;;15.43;4.35;;;;;;;;;;4954220;28;20054;-68
2022/09/20 09:29:52;;;;;;;20.35;4.45;;;;;;;;;;4954215;28;20435;-68
2022/09/20 09:32:28;;;;;;;15.98;5.07;;;;;;;;;;4969986;28;20066;-68
2022/09/20 09:35:36;;;;;;;24.58;5.40;;;;;;;;;;4962134;28;20074;-68
2022/09/20 09:38:20;;;;;;;22.30;4.68;;;;;;;;;;4935023;29;20424;-68
2022/09/20 09:41:39;;;;;;;14.80;4.45;;;;;;;;;;4899998;29;20048;-67
2022/09/20 09:44:26;;;;;;;18.23;3.67;;;;;;;;;;4804750;29;20071;-67
2022/09/20 09:46:57;;;;;;;21.60;5.15;;;;;;;;;;4804698;29;20069;-68
2022/09/20 09:49:34;;;;;;;15.20;4.88;;;;;;;;;;4804680;29;20420;-67
2022/09/20 09:52:23;;;;;;;12.93;4.22;;;;;;;;;;4804856;29;20063;-67
2022/09/20 09:54:59;;;;;;;15.85;4.95;;;;;;;;;;4833799;29;20070;-67
2022/09/20 09:57:55;;;;;;;13.23;4.05;;;;;;;;;;4841218;29;20411;-67
2022/09/20 10:00:26;;;;;;;12.32;4.47;;;;;;;;;;4840977;29;20062;-67
2022/09/20 10:03:19;;;;;;;14.27;4.65;;;;;;;;;;4841052;29;20058;-67
2022/09/20 10:06:08;;;;;;;10.35;4.25;;;;;;;;;;4841026;29;20058;-67
2022/09/20 10:08:44;;;;;;;20.63;5.28;;;;;;;;;;4867519;29;20408;-67
2022/09/20 10:11:22;;;;;;;18.42;4.60;;;;;;;;;;4914977;29;20063;-67
2022/09/20 10:14:16;;;;;;;12.07;4.03;;;;;;;;;;4915400;29;20067;-67
2022/09/20 10:17:09;;;;;;;15.95;4.78;;;;;;;;;;4915144;29;20063;-67
2022/09/20 10:19:42;;;;;;;14.82;5.13;;;;;;;;;;4956278;28;20082;-67
2022/09/20 10:22:50;;;;;;;10.45;4.03;;;;;;;;;;5075247;28;20048;-67
2022/09/20 10:26:08;;;;;;;8.75;4.05;;;;;;;;;;5090862;28;20056;-67
2022/09/20 10:29:20;;;;;;;7.68;3.40;;;;;;;;;;5089790;28;20052;-67
2022/09/20 10:32:09;;;;;;;10.15;4.20;;;;;;;;;;5014425;28;20510;-67
2022/09/20 10:35:06;;;;;;;13.02;4.13;;;;;;;;;;5015894;28;20531;-67
2022/09/20 10:38:05;;;;;;;14.02;4.53;;;;;;;;;;4991702;28;20069;-67
2022/09/20 10:44:21;;;;;;;12.88;4.43;;;;;;;;;;4972149;28;20097;-67
2022/09/20 10:47:16;;;;;;;11.77;4.10;;;;;;;;;;4971988;28;20097;-67
2022/09/20 10:50:03;;;;;;;13.23;4.72;;;;;;;;;;4972052;28;20055;-67
2022/09/20 10:52:52;;;;;;;9.38;4.18;;;;;;;;;;4952592;29;20058;-67
2022/09/20 10:55:29;;;;;;;10.40;4.07;;;;;;;;;;4952472;29;20055;-67
2022/09/20 10:58:04;;;;;;;12.73;4.38;;;;;;;;;;4952680;29;20062;-67
2022/09/20 11:00:52;;;;;;;13.38;4.75;;;;;;;;;;4952734;29;20062;-67
2022/09/20 11:03:45;;;;;;;13.52;5.10;;;;;;;;;;4952532;29;20435;-67
2022/09/20 11:06:23;;;;;;;9.63;4.05;;;;;;;;;;4921102;29;20532;-67
2022/09/20 11:08:57;;;;;;;8.68;4.32;;;;;;;;;;4928808;29;20063;-67
2022/09/20 11:11:37;;;;;;;6.90;3.38;;;;;;;;;;4933186;29;20063;-67
2022/09/20 11:14:12;;;;;;;10.73;4.85;;;;;;;;;;4935015;28;20066;-67
2022/09/20 11:16:55;;;;;;;25.55;7.75;;;;;;;;;;4969380;28;20066;-67
2022/09/20 11:19:32;;;;;;;22.80;8.38;;;;;;;;;;4971218;28;20197;-67
2022/09/20 11:22:11;;;;;;;30.48;9.45;;;;;;;;;;4971605;28;20063;-67
2022/09/20 11:24:50;;;;;;;35.47;11.10;;;;;;;;;;4917872;29;20051;-67
2022/09/20 11:27:30;;;;;;;41.22;12.25;;;;;;;;;;4951839;28;20062;-67
2022/09/20 11:30:07;;;;;;;43.67;13.50;;;;;;;;;;4952045;28;20055;-67
2022/09/20 11:32:47;;;;;;;46.35;12.07;;;;;;;;;;4951912;28;20051;-68
2022/09/20 11:35:21;;;;;;;43.58;12.65;;;;;;;;;;4983165;28;20058;-68
2022/09/20 11:38:16;;;;;;;46.63;12.70;;;;;;;;;;4989258;28;20548;-68
2022/09/20 11:41:24;;;;;;;48.70;12.90;;;;;;;;;;4951047;28;20427;-67
2022/09/20 11:44:17;;;;;;;41.00;12.30;;;;;;;;;;4856863;29;20061;-68
2022/09/20 11:47:00;;;;;;;42.65;11.98;;;;;;;;;;4875955;29;20049;-67
2022/09/20 11:50:07;;;;;;;44.33;12.95;;;;;;;;;;4894424;29;20056;-68
2022/09/20 11:53:12;;;;;;;34.42;10.95;;;;;;;;;;4894538;29;20437;-68
2022/09/20 11:56:04;;;;;;;37.33;11.60;;;;;;;;;;4856920;29;20053;-67
2022/09/20 11:58:54;;;;;;;31.02;11.88;;;;;;;;;;4841576;29;20053;-67
2022/09/20 12:01:34;;;;;;;21.42;8.13;;;;;;;;;;4855407;29;20057;-68
2022/09/20 12:04:28;;;;;;;24.88;9.40;;;;;;;;;;4838871;29;20061;-68
2022/09/20 12:07:19;;;;;;;28.02;10.25;;;;;;;;;;4850680;29;20426;-68
2022/09/20 12:09:59;;;;;;;32.20;10.70;;;;;;;;;;4857029;29;20069;-68
2022/09/20 12:12:36;;;;;;;26.17;9.45;;;;;;;;;;4857123;29;20058;-68
2022/09/20 12:15:25;;;;;;;28.73;9.85;;;;;;;;;;4856921;29;20059;-68
2022/09/20 12:17:56;;;;;;;27.67;9.75;;;;;;;;;;4856944;29;20462;-67
2022/09/20 12:20:38;;;;;;;28.58;10.13;;;;;;;;;;4887967;29;20056;-68
2022/09/20 12:26:19;;;;;;;26.23;8.95;;;;;;;;;;4915408;29;20056;-68
2022/09/20 12:28:52;;;;;;;21.35;9.15;;;;;;;;;;4935483;29;20059;-68
2022/09/20 12:31:27;;;;;;;24.90;8.95;;;;;;;;;;4977777;28;20047;-68
2022/09/20 12:34:12;;;;;;;20.45;7.72;;;;;;;;;;5058482;28;20643;-69
2022/09/20 12:36:45;;;;;;;25.58;9.48;;;;;;;;;;5097192;28;20059;-69
2022/09/20 12:39:18;;;;;;;21.27;7.80;;;;;;;;;;5093113;28;20048;-69
2022/09/20 12:42:01;;;;;;;24.35;8.88;;;;;;;;;;5109474;28;20032;-69
2022/09/20 12:44:52;;;;;;;;;;;;;;;;;;5109779;28;20043;-69
2022/09/20 12:47:25;;;;;;;25.23;8.90;;;;;;;;;;4989401;28;19929;-69
2022/09/20 12:52:54;;;;;;;16.90;6.43;;;;;;;;;;4969685;28;20054;-69
2022/09/20 12:55:44;;;;;;;16.05;5.90;;;;;;;;;;4970429;28;20065;-70
2022/09/20 12:58:21;;;;;;;14.73;5.43;;;;;;;;;;4969904;28;20062;-69
2022/09/20 13:01:03;;;;;;;15.32;5.88;;;;;;;;;;4938469;28;20538;-70
2022/09/20 13:03:38;;;;;;;10.52;4.03;;;;;;;;;;4922079;28;20047;-70
2022/09/20 13:06:21;;;;;;;11.65;4.43;;;;;;;;;;4969855;28;20062;-70
2022/09/20 13:08:54;;;;;;;9.00;4.05;;;;;;;;;;4961357;28;20063;-72
2022/09/20 13:11:49;;;;;;;7.80;3.53;;;;;;;;;;4903171;29;20082;-70
2022/09/20 13:14:25;;;;;;;7.50;3.25;;;;;;;;;;4950665;28;20043;-71
2022/09/20 13:17:26;;;;;;;7.97;3.45;;;;;;;;;;4950375;28;20500;-70
2022/09/20 13:19:57;;;;;;;8.52;4.30;;;;;;;;;;4950508;28;20059;-71
2022/09/20 13:22:42;;;;;;;10.48;4.13;;;;;;;;;;4950711;28;20047;-70
2022/09/20 13:25:19;;;;;;;9.68;4.28;;;;;;;;;;4979158;28;20078;-70
2022/09/20 13:28:17;;;;;;;12.90;5.40;;;;;;;;;;4976445;28;20053;-71
2022/09/20 13:30:49;;;;;;;11.30;4.25;;;;;;;;;;5001584;28;20053;-70
2022/09/20 13:33:23;;;;;;;9.68;4.47;;;;;;;;;;5008702;28;20057;-71
2022/09/20 13:35:56;;;;;;;8.68;4.30;;;;;;;;;;5008806;28;20065;-71
2022/09/20 13:38:30;;;;;;;13.35;4.88;;;;;;;;;;5036977;28;20646;-70
2022/09/20 13:41:09;;;;;;;9.98;4.38;;;;;;;;;;5068431;28;20519;-71
2022/09/20 13:43:40;;;;;;;;;;;;;;;;;;5068689;28;20048;-70
2022/09/20 13:46:17;;;;;;;7.40;3.50;;;;;;;;;;5068376;28;19927;-71
2022/09/20 13:48:51;;;;;;;8.68;3.65;;;;;;;;;;5047760;28;20052;-70
2022/09/20 13:51:26;;;;;;;10.48;4.50;;;;;;;;;;5048312;28;20049;-71
2022/09/20 13:54:19;;;;;;;8.80;4.10;;;;;;;;;;4984005;28;20501;-69
2022/09/20 13:56:50;;;;;;;9.65;4.85;;;;;;;;;;5048130;28;20439;-70
2022/09/20 13:59:21;;;;;;;11.90;5.80;;;;;;;;;;5048132;28;20485;-70
2022/09/20 14:01:53;;;;;;;8.93;4.68;;;;;;;;;;5051295;28;20100;-71
2022/09/20 14:04:28;;;;;;;7.15;3.17;;;;;;;;;;5035666;28;20056;-71
2022/09/20 14:07:00;;;;;;;10.32;3.80;;;;;;;;;;5034737;28;20063;-70
2022/09/20 14:09:38;;;;;;;7.63;3.58;;;;;;;;;;5021086;28;20451;-70
2022/09/20 14:12:12;;;;;;;9.10;4.07;;;;;;;;;;5022829;28;20052;-71
2022/09/20 14:14:43;;;;;;;7.25;3.17;;;;;;;;;;5038954;28;20412;-71
2022/09/20 14:17:19;;;;;;;7.25;3.20;;;;;;;;;;5071388;28;20044;-71
2022/09/20 14:19:53;;;;;;;9.77;4.05;;;;;;;;;;5021553;28;20063;-70
2022/09/20 14:22:28;;;;;;;9.75;4.18;;;;;;;;;;5021846;28;20412;-70
2022/09/20 14:25:00;;;;;;;8.02;3.35;;;;;;;;;;5071265;28;20044;-71
2022/09/20 14:27:31;;;;;;;7.40;3.40;;;;;;;;;;5055592;28;20074;-71
2022/09/20 14:30:03;;;;;;;7.15;3.28;;;;;;;;;;5074966;28;20055;-70
2022/09/20 14:32:49;;;;;;;9.05;3.70;;;;;;;;;;5091393;28;20056;-71
2022/09/20 14:35:21;;;;;;;7.75;3.55;;;;;;;;;;5091429;28;20054;-71
2022/09/20 14:38:00;;;;;;;6.78;3.63;;;;;;;;;;5091365;28;20055;-71
2022/09/20 14:40:43;;;;;;;6.78;3.60;;;;;;;;;;5091532;28;20055;-70
2022/09/20 14:43:31;;;;;;;7.55;3.83;;;;;;;;;;5070840;28;20052;-71
2022/09/20 14:46:10;;;;;;;7.75;3.88;;;;;;;;;;5070996;28;20063;-72
2022/09/20 14:48:41;;;;;;;11.65;4.40;;;;;;;;;;4973844;28;20059;-71
2022/09/20 14:51:22;;;;;;;8.13;4.28;;;;;;;;;;5050407;28;20055;-70
2022/09/20 14:53:53;;;;;;;11.70;4.38;;;;;;;;;;5017639;28;20516;-70
2022/09/20 14:56:51;;;;;;;6.28;3.53;;;;;;;;;;5050754;28;20432;-70
2022/09/20 14:59:25;;;;;;;9.40;4.68;;;;;;;;;;5050659;28;20053;-71
2022/09/20 15:02:08;;;;;;;8.02;4.07;;;;;;;;;;5050535;28;20393;-70
2022/09/20 15:04:41;;;;;;;9.20;4.80;;;;;;;;;;4994615;28;20045;-70
2022/09/20 15:07:11;;;;;;;7.47;4.45;;;;;;;;;;4978100;28;20518;-71
2022/09/20 15:09:41;;;;;;;8.00;4.55;;;;;;;;;;4971423;28;20058;-70
2022/09/20 15:12:15;;;;;;;8.95;4.95;;;;;;;;;;4971765;28;20063;-70
2022/09/20 15:14:46;;;;;;;8.20;4.13;;;;;;;;;;4987343;28;20061;-69
2022/09/20 15:17:20;;;;;;;12.43;6.80;;;;;;;;;;4971663;28;20058;-69
2022/09/20 15:19:53;;;;;;;6.25;3.53;;;;;;;;;;4973626;28;20067;-71
2022/09/20 15:22:23;;;;;;;6.85;3.17;;;;;;;;;;5001494;28;20065;-71
2022/09/20 15:24:53;;;;;;;5.20;2.90;;;;;;;;;;5026895;28;20445;-71
2022/09/20 15:27:23;;;;;;;6.13;3.25;;;;;;;;;;5010659;28;20524;-71
2022/09/20 15:29:56;;;;;;;3.83;2.20;;;;;;;;;;4962018;28;20418;-70
2022/09/20 15:32:27;;;;;;;6.15;3.03;;;;;;;;;;5010594;28;20077;-71
2022/09/20 15:34:57;;;;;;;6.20;2.78;;;;;;;;;;4994262;28;20054;-72
2022/09/20 15:37:28;;;;;;;5.57;2.63;;;;;;;;;;5010397;28;20046;-71
2022/09/20 15:39:59;;;;;;;4.30;2.47;;;;;;;;;;5010271;28;20065;-71
2022/09/20 15:42:29;;;;;;;5.95;2.95;;;;;;;;;;5008827;28;20053;-71
2022/09/20 15:44:59;;;;;;;6.20;2.80;;;;;;;;;;5049907;28;20049;-71
2022/09/20 15:47:30;;;;;;;10.27;4.07;;;;;;;;;;5061159;28;20063;-71
2022/09/20 15:50:01;;;;;;;5.40;2.90;;;;;;;;;;5029558;28;20056;-70
2022/09/20 15:52:40;;;;;;;5.00;2.70;;;;;;;;;;5052011;28;20068;-71
2022/09/20 15:55:10;;;;;;;;;;;;;;;;;;5069851;28;20063;-70
2022/09/20 15:57:41;;;;;;;5.07;3.00;;;;;;;;;;5069660;28;19928;-71
2022/09/20 16:00:11;;;;;;;5.35;3.13;;;;;;;;;;5069480;28;20103;-70
2022/09/20 16:02:41;;;;;;;6.63;3.30;;;;;;;;;;5069540;28;20041;-69
2022/09/20 16:05:11;;;;;;;5.45;3.30;;;;;;;;;;5036033;28;20520;-69
2022/09/20 16:07:41;;;;;;;5.60;3.35;;;;;;;;;;5036634;28;20052;-69
2022/09/20 16:10:12;;;;;;;6.25;3.83;;;;;;;;;;5069101;28;20054;-70
2022/09/20 16:12:42;;;;;;;4.93;2.72;;;;;;;;;;5069316;28;20055;-69
2022/09/20 16:15:12;;;;;;;5.18;2.90;;;;;;;;;;5069298;28;20194;-70
2022/09/20 16:20:30;;;;;;;5.88;3.00;;;;;;;;;;5074584;28;20520;-68
2022/09/20 16:23:04;;;;;;;6.43;3.53;;;;;;;;;;5091239;28;20044;-68
2022/09/20 16:25:35;;;;;;;5.22;3.22;;;;;;;;;;5056128;28;20052;-67